createdAt,value
2023-03-02T00:02:33.023Z,21.77
2023-03-02T00:05:55.746Z,21.02
2023-03-02T00:09:18.344Z,17.83
2023-03-02T00:12:42.580Z,20.70
2023-03-02T00:16:05.368Z,18.95
2023-03-02T00:19:28.466Z,25.70
2023-03-02T00:22:51.553Z,21.17
2023-03-02T00:26:14.422Z,19.48
2023-03-02T00:29:39.007Z,20.00
2023-03-02T00:33:01.513Z,20.17
2023-03-02T00:36:24.182Z,19.83
2023-03-02T00:39:47.085Z,20.95
2023-03-02T00:43:09.678Z,22.37
2023-03-02T00:46:34.011Z,21.08
2023-03-02T00:49:57.061Z,23.17
2023-03-02T00:53:19.957Z,22.77
2023-03-02T00:56:42.645Z,22.00
2023-03-02T01:00:06.817Z,20.27
2023-03-02T01:03:30.923Z,22.02
2023-03-02T01:06:53.877Z,20.67
2023-03-02T01:10:16.529Z,19.73
2023-03-02T01:13:39.515Z,21.12
2023-03-02T01:17:02.060Z,21.23
2023-03-02T01:20:26.127Z,21.37
2023-03-02T01:23:48.695Z,21.12
2023-03-02T01:27:11.344Z,22.30
2023-03-02T01:30:34.129Z,21.40
2023-03-02T01:33:57.226Z,19.98
2023-03-02T01:37:23.055Z,23.00
2023-03-02T01:40:45.829Z,19.30
2023-03-02T01:44:25.414Z,20.60
2023-03-02T01:47:48.433Z,21.70
2023-03-02T01:51:15.990Z,20.73
2023-03-02T01:54:40.518Z,19.35
2023-03-02T01:58:02.967Z,20.98
2023-03-02T02:01:25.513Z,21.08
2023-03-02T02:04:48.490Z,21.43
2023-03-02T02:08:10.925Z,19.87
2023-03-02T02:11:35.464Z,21.35
2023-03-02T02:15:00.857Z,23.10
2023-03-02T02:18:23.022Z,20.15
2023-03-02T02:21:45.902Z,19.07
2023-03-02T02:25:13.302Z,18.95
2023-03-02T02:28:40.583Z,19.70
2023-03-02T02:32:05.322Z,21.73
2023-03-02T02:35:30.399Z,17.85
2023-03-02T02:38:54.248Z,20.63
2023-03-02T02:42:18.500Z,17.75
2023-03-02T02:45:42.507Z,21.20
2023-03-02T02:49:07.169Z,17.80
2023-03-02T02:52:30.495Z,17.77
2023-03-02T02:55:54.045Z,18.52
2023-03-02T02:59:18.612Z,17.40
2023-03-02T03:02:44.603Z,14.55
2023-03-02T03:06:08.345Z,18.20
2023-03-02T03:09:31.159Z,18.13
2023-03-02T03:12:54.215Z,13.80
2023-03-02T03:16:17.638Z,15.30
2023-03-02T03:19:41.699Z,14.13
2023-03-02T03:23:04.548Z,13.55
2023-03-02T03:26:27.279Z,14.47
2023-03-02T03:29:50.350Z,14.48
2023-03-02T03:33:12.825Z,12.35
2023-03-02T03:36:40.243Z,13.02
2023-03-02T03:40:03.906Z,15.70
2023-03-02T03:43:27.525Z,20.10
2023-03-02T03:46:50.532Z,20.17
2023-03-02T03:50:13.438Z,19.80
2023-03-02T03:53:37.381Z,20.52
2023-03-02T03:57:01.493Z,20.20
2023-03-02T04:00:24.429Z,20.17
2023-03-02T04:03:47.526Z,19.17
2023-03-02T04:07:09.919Z,14.77
2023-03-02T04:10:34.388Z,15.75
2023-03-02T04:13:57.784Z,12.40
2023-03-02T04:17:20.784Z,11.15
2023-03-02T04:20:43.786Z,13.10
2023-03-02T04:24:08.142Z,12.57
2023-03-02T04:27:31.980Z,12.63
2023-03-02T04:30:55.105Z,12.27
2023-03-02T04:34:17.580Z,12.88
2023-03-02T04:37:40.588Z,12.60
2023-03-02T04:41:03.147Z,13.27
2023-03-02T04:44:27.068Z,20.33
2023-03-02T04:47:49.265Z,22.03
2023-03-02T04:51:16.801Z,34.08
2023-03-02T04:54:39.017Z,31.48
2023-03-02T04:58:01.654Z,23.95
2023-03-02T05:01:25.639Z,27.62
2023-03-02T05:04:48.919Z,27.87
2023-03-02T05:08:11.529Z,22.73
2023-03-02T05:11:34.422Z,21.12
2023-03-02T05:14:56.574Z,16.08
2023-03-02T05:18:20.489Z,16.20
2023-03-02T05:21:42.806Z,13.20
2023-03-02T05:25:06.923Z,12.73
2023-03-02T05:28:29.480Z,18.48
2023-03-02T05:31:52.452Z,18.52
2023-03-02T05:35:16.224Z,16.50
2023-03-02T05:38:39.292Z,17.08
2023-03-02T05:42:01.807Z,13.38
2023-03-02T05:45:26.391Z,18.83
2023-03-02T05:48:48.865Z,20.87
2023-03-02T05:52:12.793Z,17.95
2023-03-02T05:55:37.322Z,13.88
2023-03-02T05:59:00.282Z,18.58
2023-03-02T06:02:23.010Z,18.70
2023-03-02T06:05:50.837Z,18.90
2023-03-02T06:09:14.695Z,16.83
2023-03-02T06:12:37.835Z,23.87
2023-03-02T06:16:00.588Z,19.55
2023-03-02T06:19:23.622Z,19.17
2023-03-02T06:22:47.705Z,17.67
2023-03-02T06:26:12.242Z,19.30
2023-03-02T06:29:34.806Z,18.83
2023-03-02T06:32:57.712Z,15.77
2023-03-02T06:36:20.435Z,19.40
2023-03-02T06:39:43.495Z,16.87
2023-03-02T06:43:07.483Z,15.43
2023-03-02T06:46:30.163Z,11.05
2023-03-02T06:49:52.580Z,13.43
2023-03-02T06:53:18.493Z,22.13
2023-03-02T06:56:41.201Z,14.80
2023-03-02T07:00:07.626Z,11.65
2023-03-02T07:03:30.106Z,12.37
2023-03-02T07:06:53.013Z,11.70
2023-03-02T07:10:15.466Z,9.55
2023-03-02T07:13:38.323Z,10.55
2023-03-02T07:17:02.527Z,10.23
2023-03-02T07:20:25.220Z,11.37
2023-03-02T07:23:47.665Z,8.00
2023-03-02T07:27:10.594Z,8.77
2023-03-02T07:30:35.308Z,6.70
2023-03-02T07:33:59.403Z,10.40
2023-03-02T07:37:21.943Z,10.30
2023-03-02T07:40:47.539Z,16.95
2023-03-02T07:44:10.022Z,9.75
2023-03-02T07:47:32.665Z,10.60
2023-03-02T07:51:00.331Z,8.07
2023-03-02T07:54:22.934Z,8.73
2023-03-02T07:57:45.446Z,8.38
2023-03-02T08:01:08.919Z,9.30
2023-03-02T08:04:31.875Z,9.00
2023-03-02T08:07:55.705Z,10.27
2023-03-02T08:11:18.964Z,10.88
2023-03-02T08:14:41.181Z,18.58
2023-03-02T08:18:04.345Z,10.35
2023-03-02T08:21:27.104Z,9.57
2023-03-02T08:24:51.369Z,8.90
2023-03-02T08:28:13.982Z,13.65
2023-03-02T08:31:36.901Z,10.48
2023-03-02T08:34:59.589Z,14.80
2023-03-02T08:38:22.749Z,12.70
2023-03-02T08:41:46.646Z,11.82
2023-03-02T08:45:10.328Z,22.05
2023-03-02T08:48:32.583Z,11.57
2023-03-02T08:51:56.495Z,14.75
2023-03-02T08:55:21.663Z,13.13
2023-03-02T08:58:46.112Z,10.75
2023-03-02T09:02:08.638Z,11.05
2023-03-02T09:05:31.185Z,11.88
2023-03-02T09:08:53.767Z,11.82
2023-03-02T09:12:16.732Z,13.03
2023-03-02T09:15:40.664Z,11.30
2023-03-02T09:19:03.784Z,10.57
2023-03-02T09:22:26.212Z,14.07
2023-03-02T09:25:49.300Z,11.45
2023-03-02T09:29:15.130Z,11.47
2023-03-02T09:32:39.707Z,18.12
2023-03-02T09:36:02.534Z,12.40
2023-03-02T09:39:25.432Z,13.32
2023-03-02T09:43:00.516Z,13.13
2023-03-02T09:46:24.910Z,15.50
2023-03-02T09:49:54.982Z,13.82
2023-03-02T09:53:42.577Z,12.75
2023-03-02T09:57:05.368Z,14.65
2023-03-02T10:00:30.217Z,15.88
2023-03-02T10:03:56.395Z,14.37
2023-03-02T10:07:23.817Z,15.55
2023-03-02T10:10:48.072Z,16.58
2023-03-02T10:14:13.794Z,18.77
2023-03-02T10:17:52.907Z,14.38
2023-03-02T10:21:21.782Z,14.57
2023-03-02T10:24:49.755Z,16.10
2023-03-02T10:28:15.440Z,17.45
2023-03-02T10:31:40.248Z,14.65
2023-03-02T10:35:03.313Z,13.23
2023-03-02T10:38:26.256Z,13.47
2023-03-02T10:41:52.741Z,14.20
2023-03-02T10:45:20.369Z,11.65
2023-03-02T10:48:50.126Z,13.95
2023-03-02T10:52:14.301Z,14.80
2023-03-02T10:55:36.523Z,17.53
2023-03-02T10:59:03.488Z,13.73
2023-03-02T11:02:27.655Z,13.50
2023-03-02T11:05:50.480Z,13.32
2023-03-02T11:09:14.669Z,16.58
2023-03-02T11:12:38.062Z,15.60
2023-03-02T11:16:02.471Z,14.98
2023-03-02T11:19:26.983Z,13.45
2023-03-02T11:22:52.127Z,12.02
2023-03-02T11:26:17.096Z,13.82
2023-03-02T11:29:41.519Z,32.43
2023-03-02T11:33:08.929Z,17.23
2023-03-02T11:36:36.899Z,12.48
2023-03-02T11:40:05.289Z,12.00
2023-03-02T11:43:27.816Z,12.45
2023-03-02T11:46:52.199Z,14.60
2023-03-02T11:50:16.253Z,10.63
2023-03-02T11:53:42.638Z,15.65
2023-03-02T11:57:05.832Z,11.88
2023-03-02T12:00:33.017Z,12.43
2023-03-02T12:03:55.760Z,11.50
2023-03-02T12:07:22.985Z,13.23
2023-03-02T12:10:58.865Z,12.10
2023-03-02T12:14:29.923Z,11.35
2023-03-02T12:17:53.027Z,8.65
2023-03-02T12:21:17.193Z,10.20
2023-03-02T12:24:42.873Z,15.85
2023-03-02T12:28:05.483Z,11.70
2023-03-02T12:31:28.328Z,12.32
2023-03-02T12:34:53.793Z,13.52
2023-03-02T12:38:24.904Z,28.00
2023-03-02T12:41:57.564Z,12.98
2023-03-02T12:45:26.875Z,10.32
2023-03-02T12:48:51.475Z,10.63
2023-03-02T12:52:28.298Z,9.13
2023-03-02T12:55:51.042Z,10.10
2023-03-02T12:59:23.433Z,12.02
2023-03-02T13:02:47.274Z,11.45
2023-03-02T13:06:14.904Z,10.55
2023-03-02T13:09:40.123Z,16.80
2023-03-02T13:13:05.897Z,14.43
2023-03-02T13:16:31.833Z,10.00
2023-03-02T13:19:54.810Z,11.38
2023-03-02T13:23:17.717Z,11.20
2023-03-02T13:26:40.701Z,11.12
2023-03-02T13:30:10.795Z,12.03
2023-03-02T13:33:35.571Z,24.95
2023-03-02T13:36:57.723Z,15.05
2023-03-02T13:40:40.509Z,10.45
2023-03-02T13:44:13.727Z,12.02
2023-03-02T13:47:36.853Z,11.27
2023-03-02T13:51:02.446Z,9.57
2023-03-02T13:54:27.586Z,16.15
2023-03-02T13:57:50.289Z,61.00
2023-03-02T14:01:13.103Z,10.88
2023-03-02T14:04:35.894Z,10.17
2023-03-02T14:07:59.813Z,9.27
2023-03-02T14:11:22.749Z,12.18
2023-03-02T14:14:45.637Z,13.98
2023-03-02T14:18:13.847Z,11.50
2023-03-02T14:21:36.940Z,12.80
2023-03-02T14:25:04.215Z,10.48
2023-03-02T14:28:28.687Z,13.48
2023-03-02T14:31:51.669Z,9.93
2023-03-02T14:35:15.766Z,12.63
2023-03-02T14:38:38.496Z,12.07
2023-03-02T14:42:02.373Z,11.18
2023-03-02T14:45:24.910Z,14.20
2023-03-02T14:48:47.295Z,14.60
2023-03-02T14:52:13.915Z,10.13
2023-03-02T14:55:37.125Z,15.10
2023-03-02T14:59:01.406Z,11.65
2023-03-02T15:02:26.768Z,9.82
2023-03-02T15:06:00.943Z,10.40
2023-03-02T15:09:24.337Z,12.32
2023-03-02T15:12:47.390Z,17.70
2023-03-02T15:16:12.261Z,12.18
2023-03-02T15:19:35.306Z,10.15
2023-03-02T15:22:58.057Z,12.52
2023-03-02T15:26:20.726Z,12.85
2023-03-02T15:29:45.080Z,9.73
2023-03-02T15:33:09.398Z,12.68
2023-03-02T15:36:31.809Z,9.93
2023-03-02T15:39:55.612Z,10.98
2023-03-02T15:43:18.133Z,13.15
2023-03-02T15:46:41.386Z,10.97
2023-03-02T15:50:05.590Z,14.10
2023-03-02T15:53:28.600Z,12.48
2023-03-02T15:56:53.326Z,13.32
2023-03-02T16:00:17.982Z,12.70
2023-03-02T16:03:41.060Z,15.53
2023-03-02T16:07:05.651Z,14.27
2023-03-02T16:10:31.965Z,17.62
2023-03-02T16:13:54.850Z,17.12
2023-03-02T16:17:19.264Z,15.25
2023-03-02T16:20:42.172Z,21.63
2023-03-02T16:24:06.919Z,15.48
2023-03-02T16:27:30.416Z,16.77
2023-03-02T16:30:53.471Z,18.75
2023-03-02T16:34:16.015Z,22.42
2023-03-02T16:37:39.429Z,43.73
2023-03-02T16:41:03.315Z,28.85
2023-03-02T16:44:26.837Z,22.52
2023-03-02T16:47:49.563Z,24.05
2023-03-02T16:51:12.313Z,28.38
2023-03-02T16:54:35.450Z,28.57
2023-03-02T16:58:03.564Z,35.15
2023-03-02T17:01:26.899Z,34.03
2023-03-02T17:04:50.906Z,34.90
2023-03-02T17:08:14.375Z,35.75
2023-03-02T17:11:38.418Z,33.30
2023-03-02T17:15:03.558Z,28.27
2023-03-02T17:18:27.946Z,30.85
2023-03-02T17:21:53.152Z,40.33
2023-03-02T17:25:18.101Z,43.63
2023-03-02T17:28:42.829Z,42.20
2023-03-02T17:32:15.195Z,32.65
2023-03-02T17:35:38.384Z,36.45
2023-03-02T17:39:02.508Z,33.90
2023-03-02T17:42:28.696Z,26.75
2023-03-02T17:45:52.486Z,27.03
2023-03-02T17:49:17.633Z,27.42
2023-03-02T17:52:43.265Z,28.45
2023-03-02T17:56:06.926Z,31.77
2023-03-02T17:59:30.677Z,36.70
2023-03-02T18:02:57.025Z,30.63
2023-03-02T18:06:22.281Z,27.05
2023-03-02T18:09:45.694Z,29.45
2023-03-02T18:13:10.233Z,26.62
2023-03-02T18:16:35.974Z,32.28
2023-03-02T18:20:00.239Z,26.83
2023-03-02T18:23:27.351Z,25.20
2023-03-02T18:26:51.945Z,29.17
2023-03-02T18:30:15.790Z,29.95
2023-03-02T18:33:39.830Z,29.02
2023-03-02T18:37:04.235Z,26.50
2023-03-02T18:40:29.648Z,28.38
2023-03-02T18:43:53.717Z,29.35
2023-03-02T18:47:19.202Z,31.58
2023-03-02T18:50:44.474Z,25.23
2023-03-02T18:54:08.911Z,34.55
2023-03-02T18:57:34.267Z,36.25
2023-03-02T19:00:59.595Z,33.75
2023-03-02T19:04:27.047Z,26.60
2023-03-02T19:07:55.189Z,33.37
2023-03-02T19:11:19.403Z,29.92
2023-03-02T19:14:46.135Z,34.30
2023-03-02T19:18:14.243Z,30.12
2023-03-02T19:21:40.403Z,39.13
2023-03-02T19:25:05.762Z,40.33
2023-03-02T19:28:30.705Z,35.67
2023-03-02T19:32:01.342Z,44.20
2023-03-02T19:35:27.255Z,45.60
2023-03-02T19:38:51.695Z,39.42
2023-03-02T19:42:15.636Z,44.23
2023-03-02T19:45:40.016Z,43.10
2023-03-02T19:49:06.129Z,43.83
2023-03-02T19:52:33.046Z,37.97
2023-03-02T19:56:02.746Z,33.30
2023-03-02T19:59:27.075Z,33.43
2023-03-02T20:02:51.391Z,36.42
2023-03-02T20:06:17.611Z,36.05
2023-03-02T20:09:42.771Z,33.08
2023-03-02T20:13:09.424Z,37.00
2023-03-02T20:16:35.170Z,33.03
2023-03-02T20:20:01.799Z,34.88
2023-03-02T20:23:32.154Z,27.77
2023-03-02T20:26:56.708Z,30.75
2023-03-02T20:30:23.273Z,29.45
2023-03-02T20:33:51.243Z,30.77
2023-03-02T20:37:16.176Z,35.60
2023-03-02T20:40:41.841Z,34.33
2023-03-02T20:44:05.894Z,34.58
2023-03-02T20:47:30.941Z,29.70
2023-03-02T20:50:55.712Z,26.50
2023-03-02T20:54:20.939Z,30.67
2023-03-02T20:57:46.676Z,32.58
2023-03-02T21:01:11.850Z,28.73
2023-03-02T21:04:36.463Z,32.00
2023-03-02T21:07:59.787Z,35.50
2023-03-02T21:11:27.468Z,35.22
2023-03-02T21:14:56.263Z,36.97
2023-03-02T21:18:20.185Z,38.95
2023-03-02T21:21:44.011Z,35.10
2023-03-02T21:25:08.955Z,39.10
2023-03-02T21:28:32.310Z,53.50
2023-03-02T21:31:57.706Z,37.17
2023-03-02T21:35:21.989Z,37.97
2023-03-02T21:38:45.386Z,43.50
2023-03-02T21:42:09.903Z,41.25
2023-03-02T21:45:32.518Z,41.95
2023-03-02T21:48:56.898Z,40.15
2023-03-02T21:52:19.604Z,47.30
2023-03-02T21:55:42.540Z,43.53
2023-03-02T21:59:05.196Z,46.45
2023-03-02T22:02:28.110Z,46.55
2023-03-02T22:05:52.011Z,51.40
2023-03-02T22:09:14.573Z,42.50
2023-03-02T22:12:37.214Z,45.60
2023-03-02T22:16:07.537Z,50.15
2023-03-02T22:19:31.294Z,49.38
2023-03-02T22:22:55.344Z,42.38
2023-03-02T22:26:18.484Z,42.03
2023-03-02T22:29:42.102Z,42.65
2023-03-02T22:33:09.389Z,38.65
2023-03-02T22:36:31.468Z,40.72
2023-03-02T22:39:56.752Z,38.47
2023-03-02T22:43:22.680Z,37.03
2023-03-02T22:46:45.835Z,34.88
2023-03-02T22:50:20.640Z,33.33
2023-03-02T22:53:47.575Z,37.20
2023-03-02T22:57:24.302Z,37.10
2023-03-02T23:00:47.992Z,32.77
2023-03-02T23:04:16.340Z,31.00
2023-03-02T23:07:39.116Z,33.67
2023-03-02T23:11:01.624Z,42.90
2023-03-02T23:14:27.136Z,32.33
2023-03-02T23:17:49.601Z,30.03
2023-03-02T23:21:19.835Z,35.20
2023-03-02T23:24:42.375Z,33.55
2023-03-02T23:28:05.630Z,33.53
2023-03-02T23:31:29.276Z,34.97
2023-03-02T23:34:51.827Z,36.97
2023-03-02T23:38:14.316Z,32.92
2023-03-02T23:41:36.797Z,40.58
2023-03-02T23:44:59.325Z,35.80
2023-03-02T23:48:23.943Z,41.25
2023-03-02T23:51:46.482Z,32.00
2023-03-02T23:55:10.071Z,34.35
2023-03-02T23:58:32.433Z,39.90
